sensor_id;sensor_type;location;lat;lon;timestamp;pressure;altitude;pressure_sealevel;temperature;humidity
23176;BME280;19910;42.652;23.332;2023-12-07T00:01:04;94247.56;;;7.11;100.00
23176;BME280;19910;42.652;23.332;2023-12-07T00:03:31;94250.53;;;6.75;100.00
23176;BME280;19910;42.652;23.332;2023-12-07T00:05:59;94249.91;;;6.78;100.00
23176;BME280;19910;42.652;23.332;2023-12-07T00:08:26;94250.09;;;6.90;100.00
23176;BME280;19910;42.652;23.332;2023-12-07T00:10:53;94252.09;;;6.76;100.00
23176;BME280;19910;42.652;23.332;2023-12-07T00:13:20;94248.47;;;6.32;100.00
23176;BME280;19910;42.652;23.332;2023-12-07T00:15:46;94253.91;;;6.50;100.00
23176;BME280;19910;42.652;23.332;2023-12-07T00:18:14;94241.44;;;6.54;100.00
23176;BME280;19910;42.652;23.332;2023-12-07T00:20:41;94253.00;;;6.23;100.00
23176;BME280;19910;42.652;23.332;2023-12-07T00:23:09;94251.06;;;6.15;100.00
23176;BME280;19910;42.652;23.332;2023-12-07T00:25:36;94250.31;;;6.23;100.00
23176;BME280;19910;42.652;23.332;2023-12-07T00:28:03;94254.00;;;6.27;100.00
23176;BME280;19910;42.652;23.332;2023-12-07T00:30:30;94252.00;;;6.41;100.00
23176;BME280;19910;42.652;23.332;2023-12-07T00:32:57;94256.25;;;6.42;100.00
23176;BME280;19910;42.652;23.332;2023-12-07T00:35:24;94254.91;;;6.54;100.00
23176;BME280;19910;42.652;23.332;2023-12-07T00:37:54;94246.28;;;6.83;100.00
23176;BME280;19910;42.652;23.332;2023-12-07T00:40:22;94245.50;;;6.99;100.00
23176;BME280;19910;42.652;23.332;2023-12-07T00:42:49;94253.31;;;7.09;100.00
23176;BME280;19910;42.652;23.332;2023-12-07T00:45:16;94247.44;;;7.25;100.00
23176;BME280;19910;42.652;23.332;2023-12-07T00:47:43;94251.91;;;7.38;100.00
23176;BME280;19910;42.652;23.332;2023-12-07T00:50:12;94249.84;;;7.35;100.00
23176;BME280;19910;42.652;23.332;2023-12-07T00:52:39;94243.34;;;7.36;100.00
23176;BME280;19910;42.652;23.332;2023-12-07T00:55:06;94245.88;;;7.41;100.00
23176;BME280;19910;42.652;23.332;2023-12-07T00:57:34;94235.41;;;7.31;100.00
23176;BME280;19910;42.652;23.332;2023-12-07T01:00:01;94242.69;;;7.22;100.00
23176;BME280;19910;42.652;23.332;2023-12-07T01:02:29;94243.81;;;7.38;100.00
23176;BME280;19910;42.652;23.332;2023-12-07T01:04:56;94243.00;;;7.29;100.00
23176;BME280;19910;42.652;23.332;2023-12-07T01:07:23;94240.31;;;7.29;100.00
23176;BME280;19910;42.652;23.332;2023-12-07T01:09:49;94238.41;;;7.29;100.00
23176;BME280;19910;42.652;23.332;2023-12-07T01:12:16;94238.28;;;7.34;100.00
23176;BME280;19910;42.652;23.332;2023-12-07T01:14:44;94232.72;;;7.31;100.00
23176;BME280;19910;42.652;23.332;2023-12-07T01:17:11;94242.34;;;7.14;100.00
23176;BME280;19910;42.652;23.332;2023-12-07T01:19:38;94241.56;;;7.14;100.00
23176;BME280;19910;42.652;23.332;2023-12-07T01:22:04;94238.34;;;6.77;100.00
23176;BME280;19910;42.652;23.332;2023-12-07T01:24:31;94234.72;;;6.99;100.00
23176;BME280;19910;42.652;23.332;2023-12-07T01:26:58;94235.66;;;6.86;100.00
23176;BME280;19910;42.652;23.332;2023-12-07T01:29:25;94230.13;;;6.83;100.00
23176;BME280;19910;42.652;23.332;2023-12-07T01:31:53;94231.75;;;7.09;100.00
23176;BME280;19910;42.652;23.332;2023-12-07T01:34:19;94233.13;;;6.98;100.00
23176;BME280;19910;42.652;23.332;2023-12-07T01:36:46;94229.50;;;6.94;100.00
23176;BME280;19910;42.652;23.332;2023-12-07T01:39:13;94232.66;;;6.88;100.00
23176;BME280;19910;42.652;23.332;2023-12-07T01:41:41;94226.66;;;6.82;100.00
23176;BME280;19910;42.652;23.332;2023-12-07T01:44:08;94227.56;;;6.77;100.00
23176;BME280;19910;42.652;23.332;2023-12-07T01:46:35;94221.09;;;6.87;100.00
23176;BME280;19910;42.652;23.332;2023-12-07T01:49:04;94215.13;;;7.07;100.00
23176;BME280;19910;42.652;23.332;2023-12-07T01:51:31;94222.22;;;7.03;100.00
23176;BME280;19910;42.652;23.332;2023-12-07T01:53:58;94225.72;;;7.04;100.00
23176;BME280;19910;42.652;23.332;2023-12-07T01:56:25;94231.59;;;7.14;100.00
23176;BME280;19910;42.652;23.332;2023-12-07T01:58:52;94227.34;;;7.22;100.00
23176;BME280;19910;42.652;23.332;2023-12-07T02:01:19;94223.97;;;7.25;100.00
23176;BME280;19910;42.652;23.332;2023-12-07T02:03:46;94234.09;;;7.02;100.00
23176;BME280;19910;42.652;23.332;2023-12-07T02:06:15;94221.56;;;6.98;100.00
23176;BME280;19910;42.652;23.332;2023-12-07T02:08:43;94229.06;;;7.09;100.00
23176;BME280;19910;42.652;23.332;2023-12-07T02:11:10;94223.50;;;7.14;100.00
23176;BME280;19910;42.652;23.332;2023-12-07T02:13:37;94224.63;;;7.31;100.00
23176;BME280;19910;42.652;23.332;2023-12-07T02:16:07;94219.88;;;7.28;100.00
23176;BME280;19910;42.652;23.332;2023-12-07T02:18:39;94223.53;;;7.23;100.00
23176;BME280;19910;42.652;23.332;2023-12-07T02:21:16;94217.34;;;7.40;100.00
23176;BME280;19910;42.652;23.332;2023-12-07T02:23:47;94209.25;;;7.31;100.00
23176;BME280;19910;42.652;23.332;2023-12-07T02:26:51;94216.38;;;7.19;100.00
23176;BME280;19910;42.652;23.332;2023-12-07T02:29:17;94209.38;;;7.00;100.00
23176;BME280;19910;42.652;23.332;2023-12-07T02:31:44;94206.56;;;7.05;100.00
23176;BME280;19910;42.652;23.332;2023-12-07T02:34:11;94210.31;;;6.87;100.00
23176;BME280;19910;42.652;23.332;2023-12-07T02:36:40;94205.41;;;6.89;100.00
23176;BME280;19910;42.652;23.332;2023-12-07T02:39:10;94206.38;;;7.02;100.00
23176;BME280;19910;42.652;23.332;2023-12-07T02:41:39;94197.69;;;7.05;100.00
23176;BME280;19910;42.652;23.332;2023-12-07T02:44:08;94206.41;;;7.10;100.00
23176;BME280;19910;42.652;23.332;2023-12-07T02:46:35;94207.50;;;7.01;100.00
23176;BME280;19910;42.652;23.332;2023-12-07T02:49:02;94207.44;;;6.75;100.00
23176;BME280;19910;42.652;23.332;2023-12-07T02:51:29;94195.44;;;6.81;100.00
23176;BME280;19910;42.652;23.332;2023-12-07T02:53:55;94202.72;;;6.89;100.00
23176;BME280;19910;42.652;23.332;2023-12-07T02:56:22;94212.97;;;6.70;100.00
23176;BME280;19910;42.652;23.332;2023-12-07T02:58:49;94203.84;;;6.80;100.00
23176;BME280;19910;42.652;23.332;2023-12-07T03:01:17;94207.81;;;6.82;100.00
23176;BME280;19910;42.652;23.332;2023-12-07T03:03:44;94208.16;;;7.06;100.00
23176;BME280;19910;42.652;23.332;2023-12-07T03:06:10;94204.63;;;6.97;100.00
23176;BME280;19910;42.652;23.332;2023-12-07T03:08:37;94206.41;;;6.36;100.00
23176;BME280;19910;42.652;23.332;2023-12-07T03:11:05;94216.78;;;6.29;100.00
23176;BME280;19910;42.652;23.332;2023-12-07T03:13:32;94215.25;;;6.28;100.00
23176;BME280;19910;42.652;23.332;2023-12-07T03:15:58;94219.81;;;5.97;100.00
23176;BME280;19910;42.652;23.332;2023-12-07T03:18:26;94226.19;;;6.40;100.00
23176;BME280;19910;42.652;23.332;2023-12-07T03:20:53;94226.03;;;6.46;100.00
23176;BME280;19910;42.652;23.332;2023-12-07T03:23:20;94221.13;;;6.39;100.00
23176;BME280;19910;42.652;23.332;2023-12-07T03:25:47;94226.00;;;6.28;100.00
23176;BME280;19910;42.652;23.332;2023-12-07T03:28:13;94237.16;;;6.53;100.00
23176;BME280;19910;42.652;23.332;2023-12-07T03:30:40;94242.66;;;6.48;100.00
23176;BME280;19910;42.652;23.332;2023-12-07T03:33:07;94239.81;;;6.44;100.00
23176;BME280;19910;42.652;23.332;2023-12-07T03:35:35;94240.72;;;6.79;100.00
23176;BME280;19910;42.652;23.332;2023-12-07T03:38:02;94246.25;;;6.74;100.00
23176;BME280;19910;42.652;23.332;2023-12-07T03:40:29;94238.03;;;6.88;100.00
23176;BME280;19910;42.652;23.332;2023-12-07T03:42:55;94240.28;;;7.11;100.00
23176;BME280;19910;42.652;23.332;2023-12-07T03:45:22;94235.38;;;7.13;100.00
23176;BME280;19910;42.652;23.332;2023-12-07T03:47:49;94238.56;;;7.16;100.00
23176;BME280;19910;42.652;23.332;2023-12-07T03:50:16;94234.91;;;7.11;100.00
23176;BME280;19910;42.652;23.332;2023-12-07T03:52:44;94236.81;;;7.11;100.00
23176;BME280;19910;42.652;23.332;2023-12-07T03:55:11;94231.28;;;7.25;100.00
23176;BME280;19910;42.652;23.332;2023-12-07T03:57:38;94236.03;;;7.28;100.00
23176;BME280;19910;42.652;23.332;2023-12-07T04:00:06;94229.38;;;7.17;100.00
23176;BME280;19910;42.652;23.332;2023-12-07T04:02:34;94229.53;;;7.20;100.00
23176;BME280;19910;42.652;23.332;2023-12-07T04:05:01;94227.31;;;7.31;100.00
23176;BME280;19910;42.652;23.332;2023-12-07T04:07:28;94222.22;;;7.12;100.00
23176;BME280;19910;42.652;23.332;2023-12-07T04:09:56;94222.56;;;7.19;100.00
23176;BME280;19910;42.652;23.332;2023-12-07T04:12:23;94208.34;;;9.76;100.00
23176;BME280;19910;42.652;23.332;2023-12-07T04:14:50;94213.63;;;9.52;100.00
23176;BME280;19910;42.652;23.332;2023-12-07T04:17:17;94213.16;;;9.08;100.00
23176;BME280;19910;42.652;23.332;2023-12-07T04:19:44;94223.09;;;8.66;100.00
23176;BME280;19910;42.652;23.332;2023-12-07T04:22:11;94230.25;;;8.07;100.00
23176;BME280;19910;42.652;23.332;2023-12-07T04:24:37;94237.94;;;7.70;100.00
23176;BME280;19910;42.652;23.332;2023-12-07T04:27:06;94244.75;;;7.68;100.00
23176;BME280;19910;42.652;23.332;2023-12-07T04:29:32;94249.38;;;7.50;100.00
23176;BME280;19910;42.652;23.332;2023-12-07T04:31:59;94249.66;;;7.40;100.00
23176;BME280;19910;42.652;23.332;2023-12-07T04:34:27;94247.78;;;7.32;100.00
23176;BME280;19910;42.652;23.332;2023-12-07T04:36:54;94252.19;;;7.28;100.00
23176;BME280;19910;42.652;23.332;2023-12-07T04:39:21;94260.75;;;7.30;100.00
23176;BME280;19910;42.652;23.332;2023-12-07T04:41:48;94265.84;;;7.23;100.00
23176;BME280;19910;42.652;23.332;2023-12-07T04:44:16;94256.34;;;7.34;100.00
23176;BME280;19910;42.652;23.332;2023-12-07T04:46:44;94261.38;;;7.27;100.00
23176;BME280;19910;42.652;23.332;2023-12-07T04:49:11;94260.44;;;7.31;100.00
23176;BME280;19910;42.652;23.332;2023-12-07T04:51:38;94259.34;;;7.24;100.00
23176;BME280;19910;42.652;23.332;2023-12-07T04:54:07;94260.91;;;7.25;100.00
23176;BME280;19910;42.652;23.332;2023-12-07T04:56:34;94260.63;;;7.35;100.00
23176;BME280;19910;42.652;23.332;2023-12-07T04:59:00;94264.22;;;7.13;100.00
23176;BME280;19910;42.652;23.332;2023-12-07T05:01:28;94272.03;;;7.32;100.00
23176;BME280;19910;42.652;23.332;2023-12-07T05:03:55;94267.88;;;7.26;100.00
23176;BME280;19910;42.652;23.332;2023-12-07T05:06:22;94266.91;;;7.13;100.00
23176;BME280;19910;42.652;23.332;2023-12-07T05:08:49;94279.75;;;7.07;100.00
23176;BME280;19910;42.652;23.332;2023-12-07T05:11:16;94273.41;;;7.03;100.00
23176;BME280;19910;42.652;23.332;2023-12-07T05:13:43;94277.81;;;6.99;100.00
23176;BME280;19910;42.652;23.332;2023-12-07T05:16:11;94271.50;;;7.12;100.00
23176;BME280;19910;42.652;23.332;2023-12-07T05:18:42;94276.88;;;7.04;100.00
23176;BME280;19910;42.652;23.332;2023-12-07T05:21:09;94271.31;;;7.00;100.00
23176;BME280;19910;42.652;23.332;2023-12-07T05:23:36;94287.66;;;7.12;100.00
23176;BME280;19910;42.652;23.332;2023-12-07T05:26:04;94279.91;;;7.11;100.00
23176;BME280;19910;42.652;23.332;2023-12-07T05:28:33;94283.59;;;6.67;100.00
23176;BME280;19910;42.652;23.332;2023-12-07T05:31:00;94288.06;;;6.40;100.00
23176;BME280;19910;42.652;23.332;2023-12-07T05:33:26;94288.22;;;6.44;100.00
23176;BME280;19910;42.652;23.332;2023-12-07T05:35:55;94293.44;;;6.40;100.00
23176;BME280;19910;42.652;23.332;2023-12-07T05:38:21;94289.66;;;6.41;100.00
23176;BME280;19910;42.652;23.332;2023-12-07T05:40:51;94292.28;;;6.64;100.00
23176;BME280;19910;42.652;23.332;2023-12-07T05:43:18;94294.97;;;6.64;100.00
23176;BME280;19910;42.652;23.332;2023-12-07T05:45:45;94295.09;;;6.59;100.00
23176;BME280;19910;42.652;23.332;2023-12-07T05:48:11;94288.66;;;6.68;100.00
23176;BME280;19910;42.652;23.332;2023-12-07T05:50:39;94293.03;;;6.95;100.00
23176;BME280;19910;42.652;23.332;2023-12-07T05:53:08;94287.28;;;6.88;100.00
23176;BME280;19910;42.652;23.332;2023-12-07T05:55:38;94303.44;;;6.88;100.00
23176;BME280;19910;42.652;23.332;2023-12-07T05:58:05;94299.09;;;6.70;100.00
23176;BME280;19910;42.652;23.332;2023-12-07T06:00:32;94304.13;;;6.54;100.00
23176;BME280;19910;42.652;23.332;2023-12-07T06:02:59;94304.53;;;6.39;100.00
23176;BME280;19910;42.652;23.332;2023-12-07T06:05:26;94306.94;;;6.49;100.00
23176;BME280;19910;42.652;23.332;2023-12-07T06:07:55;94305.44;;;6.65;100.00
23176;BME280;19910;42.652;23.332;2023-12-07T06:10:24;94298.88;;;6.97;100.00
23176;BME280;19910;42.652;23.332;2023-12-07T06:12:50;94304.94;;;7.11;100.00
23176;BME280;19910;42.652;23.332;2023-12-07T06:15:18;94303.63;;;7.00;100.00
23176;BME280;19910;42.652;23.332;2023-12-07T06:17:45;94292.06;;;6.91;100.00
23176;BME280;19910;42.652;23.332;2023-12-07T06:20:12;94306.22;;;6.66;100.00
23176;BME280;19910;42.652;23.332;2023-12-07T06:22:39;94310.09;;;6.82;100.00
23176;BME280;19910;42.652;23.332;2023-12-07T06:25:07;94300.25;;;9.35;100.00
23176;BME280;19910;42.652;23.332;2023-12-07T06:27:36;94293.91;;;10.14;100.00
23176;BME280;19910;42.652;23.332;2023-12-07T06:30:03;94288.38;;;10.31;100.00
23176;BME280;19910;42.652;23.332;2023-12-07T06:32:31;94289.41;;;11.45;100.00
23176;BME280;19910;42.652;23.332;2023-12-07T06:34:58;94286.03;;;12.28;100.00
23176;BME280;19910;42.652;23.332;2023-12-07T06:37:27;94294.03;;;12.08;99.25
23176;BME280;19910;42.652;23.332;2023-12-07T06:39:53;94304.72;;;10.67;90.29
23176;BME280;19910;42.652;23.332;2023-12-07T06:42:20;94295.69;;;11.49;91.27
23176;BME280;19910;42.652;23.332;2023-12-07T06:44:48;94306.09;;;10.08;86.71
23176;BME280;19910;42.652;23.332;2023-12-07T06:47:15;94309.53;;;8.96;89.85
23176;BME280;19910;42.652;23.332;2023-12-07T06:49:42;94307.03;;;8.35;91.47
23176;BME280;19910;42.652;23.332;2023-12-07T06:52:09;94321.69;;;7.65;94.44
23176;BME280;19910;42.652;23.332;2023-12-07T06:54:36;94324.03;;;8.01;95.03
23176;BME280;19910;42.652;23.332;2023-12-07T06:57:04;94318.47;;;8.15;94.10
23176;BME280;19910;42.652;23.332;2023-12-07T06:59:32;94324.81;;;7.93;95.37
23176;BME280;19910;42.652;23.332;2023-12-07T07:02:00;94323.88;;;7.80;95.51
23176;BME280;19910;42.652;23.332;2023-12-07T07:04:28;94326.41;;;7.94;95.25
23176;BME280;19910;42.652;23.332;2023-12-07T07:06:55;94320.88;;;7.65;96.44
23176;BME280;19910;42.652;23.332;2023-12-07T07:09:22;94331.50;;;7.61;96.54
23176;BME280;19910;42.652;23.332;2023-12-07T07:11:49;94332.59;;;7.52;96.58
23176;BME280;19910;42.652;23.332;2023-12-07T07:14:16;94339.09;;;7.59;97.18
23176;BME280;19910;42.652;23.332;2023-12-07T07:16:44;94331.63;;;7.56;96.50
23176;BME280;19910;42.652;23.332;2023-12-07T07:19:13;94327.06;;;7.65;97.07
23176;BME280;19910;42.652;23.332;2023-12-07T07:21:42;94332.75;;;7.46;97.57
23176;BME280;19910;42.652;23.332;2023-12-07T07:24:09;94324.78;;;7.33;98.00
23176;BME280;19910;42.652;23.332;2023-12-07T07:26:36;94335.94;;;7.74;97.37
23176;BME280;19910;42.652;23.332;2023-12-07T07:29:03;94340.53;;;7.65;98.08
23176;BME280;19910;42.652;23.332;2023-12-07T07:31:31;94342.84;;;7.24;98.76
23176;BME280;19910;42.652;23.332;2023-12-07T07:33:58;94340.69;;;7.60;97.84
23176;BME280;19910;42.652;23.332;2023-12-07T07:36:26;94341.00;;;7.50;97.58
23176;BME280;19910;42.652;23.332;2023-12-07T07:38:53;94343.28;;;7.17;99.61
23176;BME280;19910;42.652;23.332;2023-12-07T07:41:20;94339.94;;;7.11;98.78
23176;BME280;19910;42.652;23.332;2023-12-07T07:43:47;94342.56;;;7.34;99.35
23176;BME280;19910;42.652;23.332;2023-12-07T07:46:14;94351.13;;;7.53;98.45
23176;BME280;19910;42.652;23.332;2023-12-07T07:48:41;94348.34;;;7.10;100.00
23176;BME280;19910;42.652;23.332;2023-12-07T07:51:07;94350.38;;;7.04;100.00
23176;BME280;19910;42.652;23.332;2023-12-07T07:53:36;94352.50;;;7.25;100.00
23176;BME280;19910;42.652;23.332;2023-12-07T07:56:04;94359.00;;;7.24;100.00
23176;BME280;19910;42.652;23.332;2023-12-07T07:58:30;94353.19;;;6.91;100.00
23176;BME280;19910;42.652;23.332;2023-12-07T08:00:57;94355.59;;;6.61;100.00
23176;BME280;19910;42.652;23.332;2023-12-07T08:03:24;94361.09;;;6.25;100.00
23176;BME280;19910;42.652;23.332;2023-12-07T08:05:51;94367.59;;;6.33;100.00
23176;BME280;19910;42.652;23.332;2023-12-07T08:08:18;94374.16;;;6.40;100.00
23176;BME280;19910;42.652;23.332;2023-12-07T08:10:46;94375.63;;;6.24;100.00
23176;BME280;19910;42.652;23.332;2023-12-07T08:13:13;94378.44;;;6.41;100.00
23176;BME280;19910;42.652;23.332;2023-12-07T08:15:39;94382.44;;;6.53;100.00
23176;BME280;19910;42.652;23.332;2023-12-07T08:18:06;94385.38;;;6.42;100.00
23176;BME280;19910;42.652;23.332;2023-12-07T08:20:35;94383.19;;;6.22;100.00
23176;BME280;19910;42.652;23.332;2023-12-07T08:23:03;94395.81;;;6.13;100.00
23176;BME280;19910;42.652;23.332;2023-12-07T08:25:30;94391.97;;;5.92;100.00
23176;BME280;19910;42.652;23.332;2023-12-07T08:27:59;94391.28;;;5.86;100.00
23176;BME280;19910;42.652;23.332;2023-12-07T08:30:26;94396.88;;;5.76;100.00
23176;BME280;19910;42.652;23.332;2023-12-07T08:32:53;94399.84;;;5.75;100.00
23176;BME280;19910;42.652;23.332;2023-12-07T08:35:20;94389.75;;;5.58;100.00
23176;BME280;19910;42.652;23.332;2023-12-07T08:37:47;94405.19;;;6.02;100.00
23176;BME280;19910;42.652;23.332;2023-12-07T08:40:14;94403.81;;;5.91;100.00
23176;BME280;19910;42.652;23.332;2023-12-07T08:42:45;94408.38;;;6.04;100.00
23176;BME280;19910;42.652;23.332;2023-12-07T08:45:14;94411.53;;;5.70;100.00
23176;BME280;19910;42.652;23.332;2023-12-07T08:47:41;94413.03;;;5.62;100.00
23176;BME280;19910;42.652;23.332;2023-12-07T08:50:08;94407.66;;;5.62;100.00
23176;BME280;19910;42.652;23.332;2023-12-07T08:52:35;94415.03;;;5.57;100.00
23176;BME280;19910;42.652;23.332;2023-12-07T08:55:03;94413.44;;;5.56;100.00
23176;BME280;19910;42.652;23.332;2023-12-07T08:57:30;94408.56;;;5.58;100.00
23176;BME280;19910;42.652;23.332;2023-12-07T08:59:57;94416.50;;;5.63;100.00
23176;BME280;19910;42.652;23.332;2023-12-07T09:02:26;94414.25;;;5.56;100.00
23176;BME280;19910;42.652;23.332;2023-12-07T09:04:53;94422.81;;;5.58;100.00
23176;BME280;19910;42.652;23.332;2023-12-07T09:07:19;94420.97;;;5.67;100.00
23176;BME280;19910;42.652;23.332;2023-12-07T09:09:46;94417.75;;;5.43;100.00
23176;BME280;19910;42.652;23.332;2023-12-07T09:12:13;94418.19;;;5.72;100.00
23176;BME280;19910;42.652;23.332;2023-12-07T09:14:41;94415.44;;;5.50;100.00
23176;BME280;19910;42.652;23.332;2023-12-07T09:17:08;94412.97;;;5.40;100.00
23176;BME280;19910;42.652;23.332;2023-12-07T09:19:36;94419.41;;;5.66;100.00
23176;BME280;19910;42.652;23.332;2023-12-07T09:22:03;94412.44;;;5.65;100.00
23176;BME280;19910;42.652;23.332;2023-12-07T09:24:30;94418.25;;;5.18;100.00
23176;BME280;19910;42.652;23.332;2023-12-07T09:26:58;94415.06;;;5.02;100.00
23176;BME280;19910;42.652;23.332;2023-12-07T09:29:25;94416.38;;;5.05;100.00
23176;BME280;19910;42.652;23.332;2023-12-07T09:31:52;94422.22;;;5.20;100.00
23176;BME280;19910;42.652;23.332;2023-12-07T09:34:19;94411.19;;;5.22;100.00
23176;BME280;19910;42.652;23.332;2023-12-07T09:36:48;94412.09;;;5.17;100.00
23176;BME280;19910;42.652;23.332;2023-12-07T09:39:14;94411.88;;;5.14;100.00
23176;BME280;19910;42.652;23.332;2023-12-07T09:41:43;94423.34;;;5.19;100.00
23176;BME280;19910;42.652;23.332;2023-12-07T09:44:12;94423.91;;;5.30;100.00
23176;BME280;19910;42.652;23.332;2023-12-07T09:46:38;94421.41;;;5.20;100.00
23176;BME280;19910;42.652;23.332;2023-12-07T09:49:06;94420.81;;;5.36;100.00
23176;BME280;19910;42.652;23.332;2023-12-07T09:51:33;94417.63;;;5.21;100.00
23176;BME280;19910;42.652;23.332;2023-12-07T09:54:02;94416.84;;;5.20;100.00
23176;BME280;19910;42.652;23.332;2023-12-07T09:56:30;94415.97;;;4.51;100.00
23176;BME280;19910;42.652;23.332;2023-12-07T09:58:57;94420.47;;;4.56;100.00
23176;BME280;19910;42.652;23.332;2023-12-07T10:01:28;94425.97;;;4.64;100.00
23176;BME280;19910;42.652;23.332;2023-12-07T10:04:16;94434.66;;;4.56;100.00
23176;BME280;19910;42.652;23.332;2023-12-07T10:06:45;94424.88;;;4.33;100.00
23176;BME280;19910;42.652;23.332;2023-12-07T10:09:14;94426.50;;;4.48;100.00
23176;BME280;19910;42.652;23.332;2023-12-07T10:11:41;94428.25;;;4.39;100.00
23176;BME280;19910;42.652;23.332;2023-12-07T10:14:10;94435.25;;;4.21;100.00
23176;BME280;19910;42.652;23.332;2023-12-07T10:16:37;94430.47;;;4.37;100.00
23176;BME280;19910;42.652;23.332;2023-12-07T10:19:13;94436.34;;;4.20;100.00
23176;BME280;19910;42.652;23.332;2023-12-07T10:21:43;94429.00;;;4.25;100.00
23176;BME280;19910;42.652;23.332;2023-12-07T10:24:10;94428.41;;;4.28;100.00
23176;BME280;19910;42.652;23.332;2023-12-07T10:26:38;94423.00;;;4.15;100.00
23176;BME280;19910;42.652;23.332;2023-12-07T10:29:06;94417.59;;;4.01;100.00
23176;BME280;19910;42.652;23.332;2023-12-07T10:31:33;94434.25;;;3.98;100.00
23176;BME280;19910;42.652;23.332;2023-12-07T10:34:00;94430.94;;;3.69;100.00
23176;BME280;19910;42.652;23.332;2023-12-07T10:36:27;94424.09;;;3.57;100.00
23176;BME280;19910;42.652;23.332;2023-12-07T10:38:54;94433.31;;;3.70;100.00
23176;BME280;19910;42.652;23.332;2023-12-07T10:41:23;94424.91;;;3.58;100.00
23176;BME280;19910;42.652;23.332;2023-12-07T10:43:53;94430.28;;;3.96;100.00
23176;BME280;19910;42.652;23.332;2023-12-07T10:46:21;94429.53;;;3.71;100.00
23176;BME280;19910;42.652;23.332;2023-12-07T10:48:51;94425.72;;;3.77;100.00
23176;BME280;19910;42.652;23.332;2023-12-07T10:51:28;94429.47;;;3.57;100.00
23176;BME280;19910;42.652;23.332;2023-12-07T10:53:57;94430.72;;;3.84;100.00
23176;BME280;19910;42.652;23.332;2023-12-07T10:56:28;94433.38;;;3.84;100.00
23176;BME280;19910;42.652;23.332;2023-12-07T10:58:58;94422.50;;;4.13;100.00
23176;BME280;19910;42.652;23.332;2023-12-07T11:01:25;94426.28;;;3.55;100.00
23176;BME280;19910;42.652;23.332;2023-12-07T11:03:52;94429.34;;;3.68;100.00
23176;BME280;19910;42.652;23.332;2023-12-07T11:06:19;94436.28;;;3.50;100.00
23176;BME280;19910;42.652;23.332;2023-12-07T11:08:49;94434.97;;;3.47;100.00
23176;BME280;19910;42.652;23.332;2023-12-07T11:11:21;94429.47;;;3.57;100.00
23176;BME280;19910;42.652;23.332;2023-12-07T11:13:53;94432.09;;;3.63;100.00
23176;BME280;19910;42.652;23.332;2023-12-07T11:16:30;94431.22;;;3.48;100.00
23176;BME280;19910;42.652;23.332;2023-12-07T11:18:58;94427.22;;;3.46;100.00
23176;BME280;19910;42.652;23.332;2023-12-07T11:21:25;94434.41;;;3.50;100.00
23176;BME280;19910;42.652;23.332;2023-12-07T11:23:52;94440.78;;;3.54;100.00
23176;BME280;19910;42.652;23.332;2023-12-07T11:26:20;94431.63;;;3.55;100.00
23176;BME280;19910;42.652;23.332;2023-12-07T11:28:47;94435.84;;;3.62;100.00
23176;BME280;19910;42.652;23.332;2023-12-07T11:31:14;94432.34;;;3.42;100.00
23176;BME280;19910;42.652;23.332;2023-12-07T11:33:44;94428.91;;;3.61;100.00
23176;BME280;19910;42.652;23.332;2023-12-07T11:36:13;94407.84;;;3.54;100.00
23176;BME280;19910;42.652;23.332;2023-12-07T11:41:43;94412.81;;;3.61;100.00
23176;BME280;19910;42.652;23.332;2023-12-07T11:44:10;94415.28;;;3.76;100.00
23176;BME280;19910;42.652;23.332;2023-12-07T11:46:38;94406.41;;;3.80;100.00
23176;BME280;19910;42.652;23.332;2023-12-07T11:49:07;94410.34;;;3.83;100.00
23176;BME280;19910;42.652;23.332;2023-12-07T11:51:36;94418.19;;;3.79;100.00
23176;BME280;19910;42.652;23.332;2023-12-07T11:54:04;94414.56;;;3.89;100.00
23176;BME280;19910;42.652;23.332;2023-12-07T11:56:33;94418.09;;;3.84;100.00
23176;BME280;19910;42.652;23.332;2023-12-07T11:59:00;94411.47;;;3.63;100.00
23176;BME280;19910;42.652;23.332;2023-12-07T12:01:28;94419.63;;;3.72;100.00
23176;BME280;19910;42.652;23.332;2023-12-07T12:03:55;94411.22;;;3.97;100.00
23176;BME280;19910;42.652;23.332;2023-12-07T12:06:24;94410.00;;;3.71;100.00
23176;BME280;19910;42.652;23.332;2023-12-07T12:08:51;94418.78;;;3.95;100.00
23176;BME280;19910;42.652;23.332;2023-12-07T12:11:19;94417.63;;;3.64;100.00
23176;BME280;19910;42.652;23.332;2023-12-07T12:13:46;94412.09;;;3.74;100.00
23176;BME280;19910;42.652;23.332;2023-12-07T12:16:15;94409.88;;;3.81;100.00
23176;BME280;19910;42.652;23.332;2023-12-07T12:18:42;94414.88;;;3.69;100.00
23176;BME280;19910;42.652;23.332;2023-12-07T12:21:08;94415.88;;;3.73;100.00
23176;BME280;19910;42.652;23.332;2023-12-07T12:23:37;94414.38;;;3.67;100.00
23176;BME280;19910;42.652;23.332;2023-12-07T12:26:06;94412.25;;;3.64;100.00
23176;BME280;19910;42.652;23.332;2023-12-07T12:28:33;94398.00;;;3.49;100.00
23176;BME280;19910;42.652;23.332;2023-12-07T12:31:03;94411.91;;;3.51;100.00
23176;BME280;19910;42.652;23.332;2023-12-07T12:33:30;94409.78;;;3.48;100.00
23176;BME280;19910;42.652;23.332;2023-12-07T12:36:05;94410.09;;;3.66;100.00
23176;BME280;19910;42.652;23.332;2023-12-07T12:38:33;94414.19;;;3.58;100.00
23176;BME280;19910;42.652;23.332;2023-12-07T12:41:01;94405.53;;;3.66;100.00
23176;BME280;19910;42.652;23.332;2023-12-07T12:43:29;94413.13;;;3.40;100.00
23176;BME280;19910;42.652;23.332;2023-12-07T12:45:57;94413.28;;;3.68;100.00
23176;BME280;19910;42.652;23.332;2023-12-07T12:48:24;94416.16;;;3.52;100.00
23176;BME280;19910;42.652;23.332;2023-12-07T12:50:51;94424.19;;;3.52;100.00
23176;BME280;19910;42.652;23.332;2023-12-07T12:53:18;94421.34;;;3.44;100.00
23176;BME280;19910;42.652;23.332;2023-12-07T12:55:45;94418.91;;;3.47;100.00